This demonstration page uses our WeatherBlox Daily Observations layout. Learn more.

38.89511, -77.03637

Hourly Observations for January 31, 2015

Temp ( °F °C ) Dew Point ( °F °C ) Humidity (%) Winds ( mph kmh ) Pressure ( in mb ) Visibility ( mi km ) Precip ( " mm )
12:52 am 00:52 Clear 23 -5 3 -16 42 42 NW 16 26 30.27 1025 10 16.09344 0 0
1:52 am 01:52 Clear 21 -6 3 -16 45 45 NNW 18 30 30.3 1026 10 16.09344 0 0
2:52 am 02:52 Clear 21 -6 3 -16 45 45 NW 18 30 30.3 1026 10 16.09344 0 0
3:52 am 03:52 Clear 21 -6 3 -16 45 45 NW 16 26 30.3 1026 10 16.09344 0 0
4:52 am 04:52 Clear 21 -6 3 -16 45 45 NW 12 19 30.3 1026 10 16.09344 0 0
5:52 am 05:52 Clear 21 -6 3 -16 45 45 NW 12 19 30.3 1026 10 16.09344 0 0
6:52 am 06:52 Clear 21 -6 3 -16 45 45 NW 14 22 30.33 1027 10 16.09344 0 0
7:52 am 07:52 Sunny 21 -6 1 -17 42 42 NW 12 19 30.36 1028 10 16.09344 0 0
8:52 am 08:52 Sunny 25 -4 1 -17 36 36 NNW 15 24 30.36 1028 10 16.09344 0 0
9:52 am 09:52 Sunny 27 -3 1 -17 33 33 NW 15 24 30.36 1028 10 16.09344 0 0
10:52 am 10:52 Sunny 28 -2 3 -16 34 34 NNW 15 24 30.36 1028 10 16.09344 0 0
11:52 am 11:52 Sunny 30 -1 3 -16 31 31 NW 12 19 30.36 1028 10 16.09344 0 0
12:52 pm 12:52 Mostly Sunny 30 -1 1 -17 29 29 WNW 14 22 30.33 1027 10 16.09344 0 0
1:52 pm 13:52 Mostly Sunny 34 1 5 -15 29 29 NW 15 24 30.3 1026 10 16.09344 0 0
2:52 pm 14:52 Mostly Sunny 34 1 7 -14 32 32 WNW 9 15 30.3 1026 10 16.09344 0 0
3:52 pm 15:52 Mostly Sunny 36 2 7 -14 30 30 WNW 6 9 30.27 1025 10 16.09344 0 0
4:52 pm 16:52 Mostly Sunny 36 2 9 -13 32 32 NW 8 13 30.27 1025 10 16.09344 0 0
5:52 pm 17:52 Mostly Clear 34 1 9 -13 35 35 Calm 30.3 1026 10 16.09344 0 0
6:52 pm 18:52 Clear 34 1 10 -12 38 38 Calm 30.3 1026 10 16.09344 0 0
7:52 pm 19:52 Clear 30 -1 19 -7 64 64 Calm 30.3 1026 10 16.09344 0 0
8:52 pm 20:52 Clear 28 -2 12 -11 51 51 SW 5 7 30.3 1026 10 16.09344 0 0
9:52 pm 21:52 Clear 30 -1 12 -11 47 47 Calm 30.3 1026 10 16.09344 0 0
10:52 pm 22:52 Partly Cloudy 28 -2 14 -10 55 55 Calm 30.27 1025 10 16.09344 0 0
11:52 pm 23:52 Partly Cloudy 28 -2 16 -9 59 59 Calm 30.3 1026 10 16.09344 0 0

Powered by AerisWeather